aviador You're here:

PAKF Decoded Metar

FALSE PASS in AK, US
Report Time2017-04-29 17:01:00
UTC Time2017-04-29 17:46:33
Flight Rules mvfr MVFR
Wind140° at 19 Gusting to 28 kt
W.Decomp.*RWY 14: 18.3 kt HW 5.2 kt LCW
W.Rank140° ranks 9
Current wind is above 140° avg. (11.1)
Visibility9999 m
Phenomena:Light Rain
Clouds:Overcast 011 Hf
Expected CloudBase > 400 ft AGL from Temp-Dew spread
Ceiling1,100 ft
Temp03°C (ISA -12)
Dew Point02°C (93% RH)
AAT-5.5°C
QNH1002 hPa
Density Alt-961 ft
Elevation19 ft
Report Wrong Elevation
Raw Report
PAKF 291701Z AUTO 14019G28KT 9SM -RA OVC011 03/02 A2960 RMK AO2 PK
WND 13028/1700 SLP118 P0001 T00330022 $=

Extra information for PAKF:More info

Metar Taf Metar & Taf Last 4 Metars F.Rules Stats Wind Profile Meteogram Temp Stats Airport Information Weather charts Add Link Nearby VenuesMetar ALERT Operation Metar Decoded Social comments